sensor_id;sensor_type;location;lat;lon;timestamp;temperature;humidity
44170;DHT22;29836;52.286;9.576;2022-11-10T00:00:14;10.50;99.90
44170;DHT22;29836;52.286;9.576;2022-11-10T00:02:39;10.50;99.90
44170;DHT22;29836;52.286;9.576;2022-11-10T00:05:08;10.50;99.90
44170;DHT22;29836;52.286;9.576;2022-11-10T00:07:34;10.50;99.90
44170;DHT22;29836;52.286;9.576;2022-11-10T00:10:00;10.40;99.90
44170;DHT22;29836;52.286;9.576;2022-11-10T00:12:25;10.40;99.90
44170;DHT22;29836;52.286;9.576;2022-11-10T00:14:51;10.40;99.90
44170;DHT22;29836;52.286;9.576;2022-11-10T00:17:35;10.40;99.90
44170;DHT22;29836;52.286;9.576;2022-11-10T00:20:01;10.40;99.90
44170;DHT22;29836;52.286;9.576;2022-11-10T00:22:27;10.40;99.90
44170;DHT22;29836;52.286;9.576;2022-11-10T00:24:52;10.40;99.90
44170;DHT22;29836;52.286;9.576;2022-11-10T00:27:18;10.40;99.90
44170;DHT22;29836;52.286;9.576;2022-11-10T00:29:43;10.40;99.90
44170;DHT22;29836;52.286;9.576;2022-11-10T00:32:09;10.50;99.90
44170;DHT22;29836;52.286;9.576;2022-11-10T00:34:35;10.60;99.90
44170;DHT22;29836;52.286;9.576;2022-11-10T00:37:01;10.50;99.90
44170;DHT22;29836;52.286;9.576;2022-11-10T00:39:27;10.50;99.90
44170;DHT22;29836;52.286;9.576;2022-11-10T00:41:52;10.50;99.90
44170;DHT22;29836;52.286;9.576;2022-11-10T00:44:18;10.50;99.90
44170;DHT22;29836;52.286;9.576;2022-11-10T00:46:43;10.40;99.90
44170;DHT22;29836;52.286;9.576;2022-11-10T00:49:09;10.30;99.90
44170;DHT22;29836;52.286;9.576;2022-11-10T00:51:34;10.30;99.90
44170;DHT22;29836;52.286;9.576;2022-11-10T00:54:00;10.20;99.90
44170;DHT22;29836;52.286;9.576;2022-11-10T00:56:25;10.20;99.90
44170;DHT22;29836;52.286;9.576;2022-11-10T00:58:51;10.20;99.90
44170;DHT22;29836;52.286;9.576;2022-11-10T01:01:18;10.20;99.90
44170;DHT22;29836;52.286;9.576;2022-11-10T01:03:44;10.10;99.90
44170;DHT22;29836;52.286;9.576;2022-11-10T01:06:11;10.10;99.90
44170;DHT22;29836;52.286;9.576;2022-11-10T01:08:38;10.00;99.90
44170;DHT22;29836;52.286;9.576;2022-11-10T01:11:06;9.90;99.90
44170;DHT22;29836;52.286;9.576;2022-11-10T01:13:32;9.90;99.90
44170;DHT22;29836;52.286;9.576;2022-11-10T01:16:09;9.90;99.90
44170;DHT22;29836;52.286;9.576;2022-11-10T01:18:36;9.80;99.90
44170;DHT22;29836;52.286;9.576;2022-11-10T01:21:02;9.70;99.90
44170;DHT22;29836;52.286;9.576;2022-11-10T01:23:28;9.70;99.90
44170;DHT22;29836;52.286;9.576;2022-11-10T01:26:02;9.60;99.90
44170;DHT22;29836;52.286;9.576;2022-11-10T01:28:29;9.60;99.90
44170;DHT22;29836;52.286;9.576;2022-11-10T01:30:58;9.60;99.90
44170;DHT22;29836;52.286;9.576;2022-11-10T01:33:25;9.60;99.90
44170;DHT22;29836;52.286;9.576;2022-11-10T01:35:50;9.60;99.90
44170;DHT22;29836;52.286;9.576;2022-11-10T01:38:16;9.50;99.90
44170;DHT22;29836;52.286;9.576;2022-11-10T01:40:42;9.40;99.90
44170;DHT22;29836;52.286;9.576;2022-11-10T01:43:09;9.40;99.90
44170;DHT22;29836;52.286;9.576;2022-11-10T01:45:41;9.40;99.90
44170;DHT22;29836;52.286;9.576;2022-11-10T01:48:11;9.40;99.90
44170;DHT22;29836;52.286;9.576;2022-11-10T01:50:41;9.30;99.90
44170;DHT22;29836;52.286;9.576;2022-11-10T01:53:18;9.40;99.90
44170;DHT22;29836;52.286;9.576;2022-11-10T01:55:46;9.50;99.90
44170;DHT22;29836;52.286;9.576;2022-11-10T01:58:15;9.50;99.90
44170;DHT22;29836;52.286;9.576;2022-11-10T02:00:41;9.50;99.90
44170;DHT22;29836;52.286;9.576;2022-11-10T02:05:59;9.30;99.90
44170;DHT22;29836;52.286;9.576;2022-11-10T02:08:25;9.30;99.90
44170;DHT22;29836;52.286;9.576;2022-11-10T02:10:52;9.30;99.90
44170;DHT22;29836;52.286;9.576;2022-11-10T02:13:18;9.30;99.90
44170;DHT22;29836;52.286;9.576;2022-11-10T02:15:43;9.30;99.90
44170;DHT22;29836;52.286;9.576;2022-11-10T02:18:09;9.30;99.90
44170;DHT22;29836;52.286;9.576;2022-11-10T02:20:35;9.20;99.90
44170;DHT22;29836;52.286;9.576;2022-11-10T02:25:55;9.20;99.90
44170;DHT22;29836;52.286;9.576;2022-11-10T02:28:21;9.20;99.90
44170;DHT22;29836;52.286;9.576;2022-11-10T02:30:47;9.10;99.90
44170;DHT22;29836;52.286;9.576;2022-11-10T02:33:13;9.10;99.90
44170;DHT22;29836;52.286;9.576;2022-11-10T02:35:42;9.10;99.90
44170;DHT22;29836;52.286;9.576;2022-11-10T02:38:08;9.20;99.90
44170;DHT22;29836;52.286;9.576;2022-11-10T02:40:33;9.10;99.90
44170;DHT22;29836;52.286;9.576;2022-11-10T02:42:59;9.10;99.90
44170;DHT22;29836;52.286;9.576;2022-11-10T02:45:24;9.10;99.90
44170;DHT22;29836;52.286;9.576;2022-11-10T02:47:50;9.10;99.90
44170;DHT22;29836;52.286;9.576;2022-11-10T02:50:16;9.10;99.90
44170;DHT22;29836;52.286;9.576;2022-11-10T02:52:41;9.10;99.90
44170;DHT22;29836;52.286;9.576;2022-11-10T02:55:07;9.10;99.90
44170;DHT22;29836;52.286;9.576;2022-11-10T02:57:33;9.20;99.90
44170;DHT22;29836;52.286;9.576;2022-11-10T02:59:58;9.20;99.90
44170;DHT22;29836;52.286;9.576;2022-11-10T03:02:24;9.10;99.90
44170;DHT22;29836;52.286;9.576;2022-11-10T03:04:49;9.10;99.90
44170;DHT22;29836;52.286;9.576;2022-11-10T03:07:15;9.10;99.90
44170;DHT22;29836;52.286;9.576;2022-11-10T03:09:40;9.00;99.90
44170;DHT22;29836;52.286;9.576;2022-11-10T03:12:06;9.00;99.90
44170;DHT22;29836;52.286;9.576;2022-11-10T03:14:31;9.00;99.90
44170;DHT22;29836;52.286;9.576;2022-11-10T03:16:57;9.00;99.90
44170;DHT22;29836;52.286;9.576;2022-11-10T03:19:22;8.90;99.90
44170;DHT22;29836;52.286;9.576;2022-11-10T03:21:48;8.90;99.90
44170;DHT22;29836;52.286;9.576;2022-11-10T03:24:13;8.90;99.90
44170;DHT22;29836;52.286;9.576;2022-11-10T03:26:39;8.90;99.90
44170;DHT22;29836;52.286;9.576;2022-11-10T03:29:04;8.90;99.90
44170;DHT22;29836;52.286;9.576;2022-11-10T03:31:30;9.00;99.90
44170;DHT22;29836;52.286;9.576;2022-11-10T03:33:55;8.90;99.90
44170;DHT22;29836;52.286;9.576;2022-11-10T03:36:21;8.90;99.90
44170;DHT22;29836;52.286;9.576;2022-11-10T03:38:46;9.00;99.90
44170;DHT22;29836;52.286;9.576;2022-11-10T03:41:12;8.90;99.90
44170;DHT22;29836;52.286;9.576;2022-11-10T03:43:37;8.90;99.90
44170;DHT22;29836;52.286;9.576;2022-11-10T03:46:03;8.90;99.90
44170;DHT22;29836;52.286;9.576;2022-11-10T03:48:28;8.90;99.90
44170;DHT22;29836;52.286;9.576;2022-11-10T03:50:54;8.90;99.90
44170;DHT22;29836;52.286;9.576;2022-11-10T03:53:19;8.90;99.90
44170;DHT22;29836;52.286;9.576;2022-11-10T03:55:45;9.00;99.90
44170;DHT22;29836;52.286;9.576;2022-11-10T03:58:10;9.00;99.90
44170;DHT22;29836;52.286;9.576;2022-11-10T04:00:36;9.00;99.90
44170;DHT22;29836;52.286;9.576;2022-11-10T04:03:01;9.00;99.90
44170;DHT22;29836;52.286;9.576;2022-11-10T04:05:27;9.00;99.90
44170;DHT22;29836;52.286;9.576;2022-11-10T04:08:15;8.90;99.90
44170;DHT22;29836;52.286;9.576;2022-11-10T04:11:01;8.90;99.90
44170;DHT22;29836;52.286;9.576;2022-11-10T04:13:26;8.90;99.90
44170;DHT22;29836;52.286;9.576;2022-11-10T04:16:11;8.90;99.90
44170;DHT22;29836;52.286;9.576;2022-11-10T04:18:36;8.90;99.90
44170;DHT22;29836;52.286;9.576;2022-11-10T04:21:02;8.90;99.90
44170;DHT22;29836;52.286;9.576;2022-11-10T04:23:30;8.90;99.90
44170;DHT22;29836;52.286;9.576;2022-11-10T04:26:05;8.90;99.90
44170;DHT22;29836;52.286;9.576;2022-11-10T04:28:51;8.90;99.90
44170;DHT22;29836;52.286;9.576;2022-11-10T04:31:18;9.00;99.90
44170;DHT22;29836;52.286;9.576;2022-11-10T04:33:44;8.90;99.90
44170;DHT22;29836;52.286;9.576;2022-11-10T04:36:13;8.90;99.90
44170;DHT22;29836;52.286;9.576;2022-11-10T04:38:39;8.90;99.90
44170;DHT22;29836;52.286;9.576;2022-11-10T04:41:05;8.90;99.90
44170;DHT22;29836;52.286;9.576;2022-11-10T04:43:31;8.90;99.90
44170;DHT22;29836;52.286;9.576;2022-11-10T04:45:57;9.00;99.90
44170;DHT22;29836;52.286;9.576;2022-11-10T04:48:24;9.00;99.90
44170;DHT22;29836;52.286;9.576;2022-11-10T04:50:51;9.00;99.90
44170;DHT22;29836;52.286;9.576;2022-11-10T04:53:17;9.00;99.90
44170;DHT22;29836;52.286;9.576;2022-11-10T04:55:43;9.00;99.90
44170;DHT22;29836;52.286;9.576;2022-11-10T04:58:09;9.10;99.90
44170;DHT22;29836;52.286;9.576;2022-11-10T05:00:36;9.10;99.90
44170;DHT22;29836;52.286;9.576;2022-11-10T05:03:03;9.20;99.90
44170;DHT22;29836;52.286;9.576;2022-11-10T05:05:30;9.20;99.90
44170;DHT22;29836;52.286;9.576;2022-11-10T05:07:56;9.20;99.90
44170;DHT22;29836;52.286;9.576;2022-11-10T05:10:22;9.20;99.90
44170;DHT22;29836;52.286;9.576;2022-11-10T05:12:47;9.20;99.90
44170;DHT22;29836;52.286;9.576;2022-11-10T05:15:13;9.10;99.90
44170;DHT22;29836;52.286;9.576;2022-11-10T05:17:38;9.10;99.90
44170;DHT22;29836;52.286;9.576;2022-11-10T05:20:05;9.10;99.90
44170;DHT22;29836;52.286;9.576;2022-11-10T05:22:31;9.10;99.90
44170;DHT22;29836;52.286;9.576;2022-11-10T05:24:56;9.10;99.90
44170;DHT22;29836;52.286;9.576;2022-11-10T05:27:22;9.10;99.90
44170;DHT22;29836;52.286;9.576;2022-11-10T05:29:47;9.00;99.90
44170;DHT22;29836;52.286;9.576;2022-11-10T05:32:13;9.00;99.90
44170;DHT22;29836;52.286;9.576;2022-11-10T05:34:38;9.00;99.90
44170;DHT22;29836;52.286;9.576;2022-11-10T05:37:04;9.00;99.90
44170;DHT22;29836;52.286;9.576;2022-11-10T05:39:29;9.00;99.90
44170;DHT22;29836;52.286;9.576;2022-11-10T05:41:55;9.10;99.90
44170;DHT22;29836;52.286;9.576;2022-11-10T05:44:20;9.10;99.90
44170;DHT22;29836;52.286;9.576;2022-11-10T05:46:46;9.10;99.90
44170;DHT22;29836;52.286;9.576;2022-11-10T05:49:12;9.10;99.90
44170;DHT22;29836;52.286;9.576;2022-11-10T05:51:38;9.20;99.90
44170;DHT22;29836;52.286;9.576;2022-11-10T05:54:03;9.20;99.90
44170;DHT22;29836;52.286;9.576;2022-11-10T05:56:29;9.20;99.90
44170;DHT22;29836;52.286;9.576;2022-11-10T05:58:54;9.20;99.90
44170;DHT22;29836;52.286;9.576;2022-11-10T06:01:20;9.20;99.90
44170;DHT22;29836;52.286;9.576;2022-11-10T06:03:45;9.20;99.90
44170;DHT22;29836;52.286;9.576;2022-11-10T06:06:11;9.20;99.90
44170;DHT22;29836;52.286;9.576;2022-11-10T06:08:36;9.20;99.90
44170;DHT22;29836;52.286;9.576;2022-11-10T06:11:02;9.20;99.90
44170;DHT22;29836;52.286;9.576;2022-11-10T06:13:28;9.20;99.90
44170;DHT22;29836;52.286;9.576;2022-11-10T06:15:54;9.20;99.90
44170;DHT22;29836;52.286;9.576;2022-11-10T06:18:19;9.20;99.90
44170;DHT22;29836;52.286;9.576;2022-11-10T06:20:46;9.20;99.90
44170;DHT22;29836;52.286;9.576;2022-11-10T06:23:12;9.20;99.90
44170;DHT22;29836;52.286;9.576;2022-11-10T06:25:39;9.20;99.90
44170;DHT22;29836;52.286;9.576;2022-11-10T06:28:06;9.20;99.90
44170;DHT22;29836;52.286;9.576;2022-11-10T06:30:33;9.30;99.90
44170;DHT22;29836;52.286;9.576;2022-11-10T06:32:59;9.30;99.90
44170;DHT22;29836;52.286;9.576;2022-11-10T06:35:25;9.30;99.90
44170;DHT22;29836;52.286;9.576;2022-11-10T06:37:59;9.30;99.90
44170;DHT22;29836;52.286;9.576;2022-11-10T06:40:25;9.30;99.90
44170;DHT22;29836;52.286;9.576;2022-11-10T06:42:50;9.30;99.90
44170;DHT22;29836;52.286;9.576;2022-11-10T06:45:16;9.30;99.90
44170;DHT22;29836;52.286;9.576;2022-11-10T06:47:41;9.30;99.90
44170;DHT22;29836;52.286;9.576;2022-11-10T06:50:07;9.30;99.90
44170;DHT22;29836;52.286;9.576;2022-11-10T06:52:41;9.30;99.90
44170;DHT22;29836;52.286;9.576;2022-11-10T06:55:06;9.40;99.90
44170;DHT22;29836;52.286;9.576;2022-11-10T06:57:41;9.40;99.90
44170;DHT22;29836;52.286;9.576;2022-11-10T07:00:07;9.30;99.90
44170;DHT22;29836;52.286;9.576;2022-11-10T07:02:33;9.30;99.90
44170;DHT22;29836;52.286;9.576;2022-11-10T07:04:58;9.40;99.90
44170;DHT22;29836;52.286;9.576;2022-11-10T07:07:24;9.40;99.90
44170;DHT22;29836;52.286;9.576;2022-11-10T07:09:49;9.40;99.90
44170;DHT22;29836;52.286;9.576;2022-11-10T07:12:15;9.40;99.90
44170;DHT22;29836;52.286;9.576;2022-11-10T07:14:41;9.40;99.90
44170;DHT22;29836;52.286;9.576;2022-11-10T07:17:06;9.30;99.90
44170;DHT22;29836;52.286;9.576;2022-11-10T07:19:32;9.40;99.90
44170;DHT22;29836;52.286;9.576;2022-11-10T07:21:57;9.50;99.90
44170;DHT22;29836;52.286;9.576;2022-11-10T07:24:23;9.50;99.90
44170;DHT22;29836;52.286;9.576;2022-11-10T07:26:48;9.60;99.90
44170;DHT22;29836;52.286;9.576;2022-11-10T07:29:14;9.80;99.90
44170;DHT22;29836;52.286;9.576;2022-11-10T07:31:39;9.90;99.90
44170;DHT22;29836;52.286;9.576;2022-11-10T07:34:05;10.20;99.90
44170;DHT22;29836;52.286;9.576;2022-11-10T07:36:31;10.40;99.90
44170;DHT22;29836;52.286;9.576;2022-11-10T07:38:56;10.60;99.90
44170;DHT22;29836;52.286;9.576;2022-11-10T07:41:22;10.80;99.90
44170;DHT22;29836;52.286;9.576;2022-11-10T07:43:47;11.00;99.90
44170;DHT22;29836;52.286;9.576;2022-11-10T07:46:13;11.10;99.90
44170;DHT22;29836;52.286;9.576;2022-11-10T07:48:38;11.20;99.90
44170;DHT22;29836;52.286;9.576;2022-11-10T07:51:04;11.20;99.90
44170;DHT22;29836;52.286;9.576;2022-11-10T07:53:30;11.20;99.90
44170;DHT22;29836;52.286;9.576;2022-11-10T07:55:56;11.20;99.90
44170;DHT22;29836;52.286;9.576;2022-11-10T07:58:22;11.40;99.90
44170;DHT22;29836;52.286;9.576;2022-11-10T08:00:48;12.00;99.90
44170;DHT22;29836;52.286;9.576;2022-11-10T08:03:16;12.30;99.90
44170;DHT22;29836;52.286;9.576;2022-11-10T08:05:42;12.10;99.90
44170;DHT22;29836;52.286;9.576;2022-11-10T08:08:08;11.90;99.90
44170;DHT22;29836;52.286;9.576;2022-11-10T08:10:34;11.70;99.90
44170;DHT22;29836;52.286;9.576;2022-11-10T08:13:02;11.60;99.90
44170;DHT22;29836;52.286;9.576;2022-11-10T08:15:29;11.50;99.90
44170;DHT22;29836;52.286;9.576;2022-11-10T08:18:07;11.60;99.90
44170;DHT22;29836;52.286;9.576;2022-11-10T08:20:37;11.90;99.90
44170;DHT22;29836;52.286;9.576;2022-11-10T08:23:04;12.10;99.90
44170;DHT22;29836;52.286;9.576;2022-11-10T08:25:32;12.30;99.90
44170;DHT22;29836;52.286;9.576;2022-11-10T08:28:16;12.70;99.90
44170;DHT22;29836;52.286;9.576;2022-11-10T08:30:44;12.60;99.90
44170;DHT22;29836;52.286;9.576;2022-11-10T08:33:11;12.50;99.90
44170;DHT22;29836;52.286;9.576;2022-11-10T08:35:39;12.40;99.90
44170;DHT22;29836;52.286;9.576;2022-11-10T08:40:32;12.30;99.90
44170;DHT22;29836;52.286;9.576;2022-11-10T08:43:03;12.20;99.90
44170;DHT22;29836;52.286;9.576;2022-11-10T08:45:35;12.20;99.90
44170;DHT22;29836;52.286;9.576;2022-11-10T08:48:12;12.70;99.90
44170;DHT22;29836;52.286;9.576;2022-11-10T08:50:38;12.70;99.90
44170;DHT22;29836;52.286;9.576;2022-11-10T08:53:09;13.20;99.90
44170;DHT22;29836;52.286;9.576;2022-11-10T08:55:35;13.50;99.90
44170;DHT22;29836;52.286;9.576;2022-11-10T08:58:02;13.40;99.90
44170;DHT22;29836;52.286;9.576;2022-11-10T09:00:30;13.90;99.90
44170;DHT22;29836;52.286;9.576;2022-11-10T09:03:03;15.00;99.90
44170;DHT22;29836;52.286;9.576;2022-11-10T09:05:28;15.30;99.90
44170;DHT22;29836;52.286;9.576;2022-11-10T09:07:54;16.30;99.90
44170;DHT22;29836;52.286;9.576;2022-11-10T09:10:20;17.10;99.90
44170;DHT22;29836;52.286;9.576;2022-11-10T09:12:45;16.90;99.90
44170;DHT22;29836;52.286;9.576;2022-11-10T09:15:12;16.00;99.90
44170;DHT22;29836;52.286;9.576;2022-11-10T09:17:39;15.40;99.90
44170;DHT22;29836;52.286;9.576;2022-11-10T09:20:07;15.10;99.90
44170;DHT22;29836;52.286;9.576;2022-11-10T09:22:36;14.60;99.90
44170;DHT22;29836;52.286;9.576;2022-11-10T09:25:01;14.90;99.90
44170;DHT22;29836;52.286;9.576;2022-11-10T09:27:27;15.60;99.90
44170;DHT22;29836;52.286;9.576;2022-11-10T09:29:53;16.40;99.90
44170;DHT22;29836;52.286;9.576;2022-11-10T09:32:18;17.30;99.90
44170;DHT22;29836;52.286;9.576;2022-11-10T09:34:44;18.20;98.30
44170;DHT22;29836;52.286;9.576;2022-11-10T09:37:09;19.10;96.10
44170;DHT22;29836;52.286;9.576;2022-11-10T09:39:35;19.20;94.30
44170;DHT22;29836;52.286;9.576;2022-11-10T09:42:02;20.30;93.10
44170;DHT22;29836;52.286;9.576;2022-11-10T09:44:50;21.70;88.10
44170;DHT22;29836;52.286;9.576;2022-11-10T09:47:29;21.90;84.00
44170;DHT22;29836;52.286;9.576;2022-11-10T09:49:58;21.50;83.80
44170;DHT22;29836;52.286;9.576;2022-11-10T09:52:26;20.00;86.80
44170;DHT22;29836;52.286;9.576;2022-11-10T09:55:07;18.70;90.30
44170;DHT22;29836;52.286;9.576;2022-11-10T09:57:37;17.70;93.20
44170;DHT22;29836;52.286;9.576;2022-11-10T10:00:03;17.20;94.90
44170;DHT22;29836;52.286;9.576;2022-11-10T10:02:39;17.20;96.10
44170;DHT22;29836;52.286;9.576;2022-11-10T10:08:04;19.40;92.10
44170;DHT22;29836;52.286;9.576;2022-11-10T10:11:04;21.30;87.80
44170;DHT22;29836;52.286;9.576;2022-11-10T10:14:03;22.50;82.00
44170;DHT22;29836;52.286;9.576;2022-11-10T10:16:53;22.70;78.30
44170;DHT22;29836;52.286;9.576;2022-11-10T10:19:41;22.60;77.10
44170;DHT22;29836;52.286;9.576;2022-11-10T10:22:30;22.70;76.30
44170;DHT22;29836;52.286;9.576;2022-11-10T10:25:03;22.80;76.70
44170;DHT22;29836;52.286;9.576;2022-11-10T10:27:37;21.90;77.20
44170;DHT22;29836;52.286;9.576;2022-11-10T10:30:14;20.90;79.90
44170;DHT22;29836;52.286;9.576;2022-11-10T10:32:40;21.00;80.50
44170;DHT22;29836;52.286;9.576;2022-11-10T10:35:12;21.00;79.90
44170;DHT22;29836;52.286;9.576;2022-11-10T10:37:44;20.20;82.40
44170;DHT22;29836;52.286;9.576;2022-11-10T10:40:15;18.90;86.50
44170;DHT22;29836;52.286;9.576;2022-11-10T10:42:40;17.90;91.00
44170;DHT22;29836;52.286;9.576;2022-11-10T10:45:35;16.90;93.40
44170;DHT22;29836;52.286;9.576;2022-11-10T10:48:26;16.10;97.50
44170;DHT22;29836;52.286;9.576;2022-11-10T10:50:52;15.50;99.90
44170;DHT22;29836;52.286;9.576;2022-11-10T10:53:24;15.10;99.90
44170;DHT22;29836;52.286;9.576;2022-11-10T10:56:03;14.80;99.90
44170;DHT22;29836;52.286;9.576;2022-11-10T10:58:35;14.60;99.90
44170;DHT22;29836;52.286;9.576;2022-11-10T11:03:49;14.30;99.90
44170;DHT22;29836;52.286;9.576;2022-11-10T11:08:54;14.20;99.90
44170;DHT22;29836;52.286;9.576;2022-11-10T11:11:32;14.10;99.90
44170;DHT22;29836;52.286;9.576;2022-11-10T11:14:18;14.00;99.90
44170;DHT22;29836;52.286;9.576;2022-11-10T11:16:56;14.00;99.90
44170;DHT22;29836;52.286;9.576;2022-11-10T11:19:25;14.00;99.90
44170;DHT22;29836;52.286;9.576;2022-11-10T11:22:06;14.00;99.90
44170;DHT22;29836;52.286;9.576;2022-11-10T11:24:47;14.00;99.90
44170;DHT22;29836;52.286;9.576;2022-11-10T11:27:38;13.90;99.90
44170;DHT22;29836;52.286;9.576;2022-11-10T11:38:31;14.00;99.90
44170;DHT22;29836;52.286;9.576;2022-11-10T11:46:36;14.30;99.90
44170;DHT22;29836;52.286;9.576;2022-11-10T11:57:19;14.80;99.90
44170;DHT22;29836;52.286;9.576;2022-11-10T12:02:55;15.20;99.90
44170;DHT22;29836;52.286;9.576;2022-11-10T12:18:30;15.10;99.90
44170;DHT22;29836;52.286;9.576;2022-11-10T12:21:30;14.90;99.90
44170;DHT22;29836;52.286;9.576;2022-11-10T12:24:35;14.70;99.90
44170;DHT22;29836;52.286;9.576;2022-11-10T12:26:58;14.50;99.90
44170;DHT22;29836;52.286;9.576;2022-11-10T12:32:10;14.10;99.90
44170;DHT22;29836;52.286;9.576;2022-11-10T12:34:47;14.00;99.90
44170;DHT22;29836;52.286;9.576;2022-11-10T12:40:18;14.00;99.90
44170;DHT22;29836;52.286;9.576;2022-11-10T12:42:50;14.00;99.90
44170;DHT22;29836;52.286;9.576;2022-11-10T12:45:21;14.00;99.90
44170;DHT22;29836;52.286;9.576;2022-11-10T12:47:48;14.00;99.90
44170;DHT22;29836;52.286;9.576;2022-11-10T12:52:58;14.00;99.90
44170;DHT22;29836;52.286;9.576;2022-11-10T12:55:35;14.00;99.90
44170;DHT22;29836;52.286;9.576;2022-11-10T12:58:04;14.00;99.90
44170;DHT22;29836;52.286;9.576;2022-11-10T13:00:35;14.00;99.90
44170;DHT22;29836;52.286;9.576;2022-11-10T13:03:04;14.00;99.90
44170;DHT22;29836;52.286;9.576;2022-11-10T13:05:36;14.00;99.90
44170;DHT22;29836;52.286;9.576;2022-11-10T13:11:01;14.00;99.90
44170;DHT22;29836;52.286;9.576;2022-11-10T13:13:27;14.00;99.90
44170;DHT22;29836;52.286;9.576;2022-11-10T13:15:56;14.00;99.90
44170;DHT22;29836;52.286;9.576;2022-11-10T13:20:52;14.00;99.90
44170;DHT22;29836;52.286;9.576;2022-11-10T13:23:29;14.00;99.90
44170;DHT22;29836;52.286;9.576;2022-11-10T13:25:55;14.00;99.90
44170;DHT22;29836;52.286;9.576;2022-11-10T13:34:36;13.90;99.90
44170;DHT22;29836;52.286;9.576;2022-11-10T13:37:33;13.90;99.90
44170;DHT22;29836;52.286;9.576;2022-11-10T13:39:48;13.80;99.90
44170;DHT22;29836;52.286;9.576;2022-11-10T13:42:19;13.70;99.90
44170;DHT22;29836;52.286;9.576;2022-11-10T13:44:48;13.70;99.90
44170;DHT22;29836;52.286;9.576;2022-11-10T13:55:54;13.40;99.90
44170;DHT22;29836;52.286;9.576;2022-11-10T13:58:28;13.40;99.90
44170;DHT22;29836;52.286;9.576;2022-11-10T14:06:15;13.40;99.90
44170;DHT22;29836;52.286;9.576;2022-11-10T14:08:58;13.40;99.90
44170;DHT22;29836;52.286;9.576;2022-11-10T14:11:36;13.40;99.90
44170;DHT22;29836;52.286;9.576;2022-11-10T14:14:12;13.40;99.90
44170;DHT22;29836;52.286;9.576;2022-11-10T14:16:42;13.40;99.90
44170;DHT22;29836;52.286;9.576;2022-11-10T14:21:58;13.40;99.90
44170;DHT22;29836;52.286;9.576;2022-11-10T14:24:32;13.40;99.90
44170;DHT22;29836;52.286;9.576;2022-11-10T14:27:05;13.50;99.90
44170;DHT22;29836;52.286;9.576;2022-11-10T14:29:36;13.60;99.90
44170;DHT22;29836;52.286;9.576;2022-11-10T14:32:21;13.70;99.90
44170;DHT22;29836;52.286;9.576;2022-11-10T14:34:50;13.70;99.90
44170;DHT22;29836;52.286;9.576;2022-11-10T14:37:23;13.70;99.90
44170;DHT22;29836;52.286;9.576;2022-11-10T14:39:55;13.70;99.90
44170;DHT22;29836;52.286;9.576;2022-11-10T14:42:23;13.70;99.90
44170;DHT22;29836;52.286;9.576;2022-11-10T14:45:04;13.70;99.90
44170;DHT22;29836;52.286;9.576;2022-11-10T14:47:30;13.50;99.90
44170;DHT22;29836;52.286;9.576;2022-11-10T14:50:17;13.40;99.90
44170;DHT22;29836;52.286;9.576;2022-11-10T14:52:46;13.30;99.90
44170;DHT22;29836;52.286;9.576;2022-11-10T14:55:19;13.20;99.90
44170;DHT22;29836;52.286;9.576;2022-11-10T14:57:51;13.10;99.90
44170;DHT22;29836;52.286;9.576;2022-11-10T15:00:22;13.00;99.90
44170;DHT22;29836;52.286;9.576;2022-11-10T15:02:51;12.90;99.90
44170;DHT22;29836;52.286;9.576;2022-11-10T15:05:17;12.90;99.90
44170;DHT22;29836;52.286;9.576;2022-11-10T15:07:44;12.80;99.90
44170;DHT22;29836;52.286;9.576;2022-11-10T15:10:15;12.70;99.90
44170;DHT22;29836;52.286;9.576;2022-11-10T15:12:42;12.60;99.90
44170;DHT22;29836;52.286;9.576;2022-11-10T15:15:22;12.50;99.90
44170;DHT22;29836;52.286;9.576;2022-11-10T15:17:50;12.40;99.90
44170;DHT22;29836;52.286;9.576;2022-11-10T15:20:30;12.30;99.90
44170;DHT22;29836;52.286;9.576;2022-11-10T15:22:57;12.20;99.90
44170;DHT22;29836;52.286;9.576;2022-11-10T15:25:31;12.20;99.90
44170;DHT22;29836;52.286;9.576;2022-11-10T15:30:30;12.10;99.90
44170;DHT22;29836;52.286;9.576;2022-11-10T15:32:56;12.00;99.90
44170;DHT22;29836;52.286;9.576;2022-11-10T15:43:09;11.40;99.90
44170;DHT22;29836;52.286;9.576;2022-11-10T15:45:37;11.40;99.90
44170;DHT22;29836;52.286;9.576;2022-11-10T15:48:04;11.40;99.90
44170;DHT22;29836;52.286;9.576;2022-11-10T15:50:30;11.30;99.90
44170;DHT22;29836;52.286;9.576;2022-11-10T15:52:55;11.20;99.90
44170;DHT22;29836;52.286;9.576;2022-11-10T15:55:23;11.00;99.90
44170;DHT22;29836;52.286;9.576;2022-11-10T15:57:49;10.90;99.90
44170;DHT22;29836;52.286;9.576;2022-11-10T16:00:15;10.90;99.90
44170;DHT22;29836;52.286;9.576;2022-11-10T16:02:41;11.00;99.90
44170;DHT22;29836;52.286;9.576;2022-11-10T16:05:10;11.00;99.90
44170;DHT22;29836;52.286;9.576;2022-11-10T16:07:36;10.90;99.90
44170;DHT22;29836;52.286;9.576;2022-11-10T16:10:04;10.80;99.90
44170;DHT22;29836;52.286;9.576;2022-11-10T16:12:29;10.80;99.90
44170;DHT22;29836;52.286;9.576;2022-11-10T16:14:55;10.70;99.90
44170;DHT22;29836;52.286;9.576;2022-11-10T16:17:21;10.80;99.90
44170;DHT22;29836;52.286;9.576;2022-11-10T16:19:47;10.80;99.90
44170;DHT22;29836;52.286;9.576;2022-11-10T16:22:13;10.80;99.90
44170;DHT22;29836;52.286;9.576;2022-11-10T16:24:39;10.80;99.90
44170;DHT22;29836;52.286;9.576;2022-11-10T16:27:09;10.80;99.90
44170;DHT22;29836;52.286;9.576;2022-11-10T16:29:35;10.90;99.90
44170;DHT22;29836;52.286;9.576;2022-11-10T16:32:01;10.80;99.90
44170;DHT22;29836;52.286;9.576;2022-11-10T16:34:27;10.80;99.90
44170;DHT22;29836;52.286;9.576;2022-11-10T16:36:53;10.80;99.90
44170;DHT22;29836;52.286;9.576;2022-11-10T16:39:18;10.70;99.90
44170;DHT22;29836;52.286;9.576;2022-11-10T16:41:45;10.70;99.90
44170;DHT22;29836;52.286;9.576;2022-11-10T16:44:11;10.70;99.90
44170;DHT22;29836;52.286;9.576;2022-11-10T16:46:38;10.70;99.90
44170;DHT22;29836;52.286;9.576;2022-11-10T16:49:08;10.70;99.90
44170;DHT22;29836;52.286;9.576;2022-11-10T16:51:42;10.70;99.90
44170;DHT22;29836;52.286;9.576;2022-11-10T16:54:11;10.60;99.90
44170;DHT22;29836;52.286;9.576;2022-11-10T16:56:37;10.50;99.90
44170;DHT22;29836;52.286;9.576;2022-11-10T16:59:02;10.40;99.90
44170;DHT22;29836;52.286;9.576;2022-11-10T17:01:30;10.30;99.90
44170;DHT22;29836;52.286;9.576;2022-11-10T17:03:59;10.30;99.90
44170;DHT22;29836;52.286;9.576;2022-11-10T17:06:27;10.40;99.90
44170;DHT22;29836;52.286;9.576;2022-11-10T17:08:54;10.50;99.90
44170;DHT22;29836;52.286;9.576;2022-11-10T17:11:21;10.50;99.90
44170;DHT22;29836;52.286;9.576;2022-11-10T17:13:47;10.40;99.90
44170;DHT22;29836;52.286;9.576;2022-11-10T17:16:28;10.40;99.90
44170;DHT22;29836;52.286;9.576;2022-11-10T17:18:55;10.30;99.90
44170;DHT22;29836;52.286;9.576;2022-11-10T17:21:22;10.20;99.90
44170;DHT22;29836;52.286;9.576;2022-11-10T17:23:48;10.20;99.90
44170;DHT22;29836;52.286;9.576;2022-11-10T17:26:15;10.10;99.90
44170;DHT22;29836;52.286;9.576;2022-11-10T17:28:42;10.00;99.90